createdAt,value
2023-05-10T00:01:00.795Z,100446.69
2023-05-10T00:02:03.321Z,100445.66
2023-05-10T00:03:06.185Z,100449.38
2023-05-10T00:04:08.720Z,100441.97
2023-05-10T00:05:11.250Z,100442.97
2023-05-10T00:06:13.631Z,100437.56
2023-05-10T00:07:18.082Z,100428.06
2023-05-10T00:08:20.640Z,100437.34
2023-05-10T00:09:22.795Z,100434.94
2023-05-10T00:10:25.155Z,100428.28
2023-05-10T00:11:27.334Z,100434.78
2023-05-10T00:12:29.469Z,100432.38
2023-05-10T00:13:32.840Z,100437.19
2023-05-10T00:14:35.019Z,100433.06
2023-05-10T00:15:37.386Z,100424.13
2023-05-10T00:16:40.156Z,100431.25
2023-05-10T00:17:42.394Z,100431.69
2023-05-10T00:18:44.816Z,100428.72
2023-05-10T00:19:47.044Z,100423.44
2023-05-10T00:20:49.893Z,100427.63
2023-05-10T00:21:52.290Z,100423.88
2023-05-10T00:22:54.484Z,100425.25
2023-05-10T00:23:56.894Z,100432.66
2023-05-10T00:24:59.813Z,100425.00
2023-05-10T00:26:02.145Z,100425.94
2023-05-10T00:27:04.996Z,100424.50
2023-05-10T00:28:07.344Z,100423.00
2023-05-10T00:29:09.741Z,100427.56
2023-05-10T00:30:12.029Z,100422.94
2023-05-10T00:31:15.628Z,100429.88
2023-05-10T00:32:17.999Z,100418.03
2023-05-10T00:33:20.330Z,100415.63
2023-05-10T00:34:23.854Z,100429.34
2023-05-10T00:35:27.031Z,100420.00
2023-05-10T00:36:29.687Z,100424.34
2023-05-10T00:37:32.074Z,100416.50
2023-05-10T00:38:35.067Z,100409.81
2023-05-10T00:39:37.442Z,100411.59
2023-05-10T00:40:39.698Z,100414.63
2023-05-10T00:41:47.000Z,100416.03
2023-05-10T00:42:49.344Z,100410.59
2023-05-10T00:43:51.914Z,100408.53
2023-05-10T00:44:54.116Z,100403.63
2023-05-10T00:45:56.981Z,100414.34
2023-05-10T00:47:00.307Z,100410.00
2023-05-10T00:48:03.806Z,100416.38
2023-05-10T00:49:07.181Z,100409.81
2023-05-10T00:50:10.296Z,100407.94
2023-05-10T00:51:12.544Z,100399.81
2023-05-10T00:52:15.172Z,100411.81
2023-05-10T00:53:17.939Z,100408.41
2023-05-10T00:54:20.427Z,100410.81
2023-05-10T00:55:22.706Z,100416.75
2023-05-10T00:56:26.226Z,100408.28
2023-05-10T00:57:28.406Z,100408.13
2023-05-10T00:58:31.935Z,100410.66
2023-05-10T00:59:34.544Z,100407.91
2023-05-10T01:00:39.549Z,100406.03
2023-05-10T01:01:42.054Z,100409.44
2023-05-10T01:02:45.049Z,100407.75
2023-05-10T01:03:48.202Z,100409.69
2023-05-10T01:04:53.142Z,100402.09
2023-05-10T01:05:56.192Z,100407.00
2023-05-10T01:06:58.814Z,100404.97
2023-05-10T01:08:01.028Z,100402.84
2023-05-10T01:09:03.195Z,100403.31
2023-05-10T01:10:07.820Z,100395.69
2023-05-10T01:11:10.520Z,100400.03
2023-05-10T01:12:13.381Z,100396.50
2023-05-10T01:13:25.933Z,100403.59
2023-05-10T01:14:29.330Z,100402.19
2023-05-10T01:15:32.402Z,100403.16
2023-05-10T01:16:39.168Z,100402.22
2023-05-10T01:17:45.348Z,100414.31
2023-05-10T01:18:48.052Z,100403.34
2023-05-10T01:19:50.912Z,100401.47
2023-05-10T01:21:10.736Z,100405.44
2023-05-10T01:23:24.239Z,100396.69
2023-05-10T01:24:52.074Z,100401.69
2023-05-10T01:26:08.822Z,100405.72
2023-05-10T01:27:26.232Z,100399.81
2023-05-10T01:28:34.161Z,100405.63
2023-05-10T01:30:14.631Z,100405.63
2023-05-10T01:32:09.172Z,100398.59
2023-05-10T01:33:17.207Z,100399.22
2023-05-10T01:34:35.197Z,100400.91
2023-05-10T01:35:48.816Z,100397.53
2023-05-10T01:37:14.304Z,100396.34
2023-05-10T01:38:43.276Z,100392.66
2023-05-10T01:40:06.949Z,100387.72
2023-05-10T01:41:16.150Z,100397.50
2023-05-10T01:42:27.512Z,100384.75
2023-05-10T01:43:43.178Z,100386.00
2023-05-10T01:45:11.814Z,100392.22
2023-05-10T01:46:29.102Z,100392.91
2023-05-10T01:47:51.375Z,100389.59
2023-05-10T01:48:56.706Z,100389.25
2023-05-10T01:50:04.086Z,100389.34
2023-05-10T01:51:07.802Z,100396.19
2023-05-10T01:52:13.578Z,100388.22
2023-05-10T01:53:20.169Z,100393.47
2023-05-10T01:54:24.334Z,100395.84
2023-05-10T01:55:31.736Z,100396.69
2023-05-10T01:56:37.114Z,100392.78
2023-05-10T01:57:42.122Z,100393.91
2023-05-10T01:58:48.285Z,100391.81
2023-05-10T01:59:51.975Z,100394.53
2023-05-10T02:00:55.164Z,100383.94
2023-05-10T02:02:00.506Z,100388.72
2023-05-10T02:03:11.517Z,100389.72
2023-05-10T02:04:17.878Z,100383.09
2023-05-10T02:05:22.649Z,100383.50
2023-05-10T02:06:27.652Z,100392.84
2023-05-10T02:07:31.002Z,100381.22
2023-05-10T02:08:36.860Z,100396.66
2023-05-10T02:09:39.563Z,100386.38
2023-05-10T02:10:43.931Z,100387.22
2023-05-10T02:11:48.152Z,100391.34
2023-05-10T02:12:52.399Z,100383.59
2023-05-10T02:13:57.098Z,100388.75
2023-05-10T02:15:06.715Z,100385.19
2023-05-10T02:16:09.698Z,100381.91
2023-05-10T02:17:12.853Z,100390.41
2023-05-10T02:18:17.216Z,100380.84
2023-05-10T02:19:20.974Z,100388.63
2023-05-10T02:20:25.511Z,100385.56
2023-05-10T02:21:30.119Z,100378.78
2023-05-10T02:22:32.828Z,100377.22
2023-05-10T02:23:36.326Z,100382.56
2023-05-10T02:24:40.576Z,100384.28
2023-05-10T02:25:44.689Z,100378.72
2023-05-10T02:26:49.362Z,100383.66
2023-05-10T02:27:54.993Z,100372.09
2023-05-10T02:28:59.607Z,100386.53
2023-05-10T02:30:02.580Z,100376.31
2023-05-10T02:31:06.246Z,100377.94
2023-05-10T02:32:11.020Z,100373.97
2023-05-10T02:33:15.352Z,100377.06
2023-05-10T02:34:18.233Z,100377.06
2023-05-10T02:35:23.377Z,100373.44
2023-05-10T02:36:28.442Z,100374.56
2023-05-10T02:37:35.488Z,100375.03
2023-05-10T02:38:41.102Z,100380.84
2023-05-10T02:39:46.498Z,100372.78
2023-05-10T02:40:49.325Z,100374.03
2023-05-10T02:41:53.373Z,100374.59
2023-05-10T02:42:58.224Z,100370.25
2023-05-10T02:44:02.545Z,100369.84
2023-05-10T02:45:12.030Z,100373.09
2023-05-10T02:46:14.476Z,100372.75
2023-05-10T02:47:17.039Z,100368.78
2023-05-10T02:48:19.497Z,100377.03
2023-05-10T02:49:21.894Z,100364.00
2023-05-10T02:50:31.095Z,100364.13
2023-05-10T02:51:37.199Z,100364.31
2023-05-10T02:52:50.739Z,100361.59
2023-05-10T02:53:55.066Z,100359.63
2023-05-10T02:55:01.853Z,100362.28
2023-05-10T02:56:09.130Z,100370.78
2023-05-10T02:57:17.150Z,100364.97
2023-05-10T02:58:22.136Z,100364.81
2023-05-10T02:59:24.811Z,100363.00
2023-05-10T03:00:27.116Z,100365.94
2023-05-10T03:01:30.501Z,100366.00
2023-05-10T03:02:33.952Z,100367.47
2023-05-10T03:03:36.440Z,100364.97
2023-05-10T03:04:39.333Z,100354.53
2023-05-10T03:05:41.764Z,100362.72
2023-05-10T03:06:44.878Z,100360.84
2023-05-10T03:07:48.397Z,100358.66
2023-05-10T03:08:50.770Z,100353.31
2023-05-10T03:09:53.347Z,100356.03
2023-05-10T03:11:11.355Z,100360.56
2023-05-10T03:12:53.620Z,100357.56
2023-05-10T03:14:17.762Z,100352.53
2023-05-10T03:15:32.700Z,100358.47
2023-05-10T03:16:47.834Z,100355.69
2023-05-10T03:18:02.914Z,100357.88
2023-05-10T03:19:21.084Z,100356.84
2023-05-10T03:20:32.586Z,100355.16
2023-05-10T03:21:39.036Z,100351.72
2023-05-10T03:22:47.934Z,100361.88
2023-05-10T03:23:57.543Z,100353.81
2023-05-10T03:25:06.783Z,100350.00
2023-05-10T03:26:10.960Z,100358.06
2023-05-10T03:27:15.334Z,100355.22
2023-05-10T03:28:20.044Z,100361.47
2023-05-10T03:29:23.954Z,100353.69
2023-05-10T03:30:26.801Z,100355.25
2023-05-10T03:31:29.416Z,100356.59
2023-05-10T03:32:33.523Z,100357.84
2023-05-10T03:33:36.314Z,100352.59
2023-05-10T03:34:43.791Z,100355.84
2023-05-10T03:35:46.783Z,100355.41
2023-05-10T03:36:50.572Z,100357.78
2023-05-10T03:37:53.296Z,100355.44
2023-05-10T03:38:56.302Z,100349.63
2023-05-10T03:39:58.667Z,100344.81
2023-05-10T03:41:00.968Z,100351.16
2023-05-10T03:42:03.759Z,100358.16
2023-05-10T03:43:07.085Z,100350.84
2023-05-10T03:44:09.320Z,100351.88
2023-05-10T03:45:11.856Z,100347.78
2023-05-10T03:46:14.090Z,100347.72
2023-05-10T03:47:17.283Z,100349.34
2023-05-10T03:48:19.522Z,100354.34
2023-05-10T03:49:21.769Z,100348.63
2023-05-10T03:50:24.533Z,100354.69
2023-05-10T03:51:29.341Z,100348.44
2023-05-10T03:52:31.594Z,100343.63
2023-05-10T03:53:33.853Z,100344.13
2023-05-10T03:54:36.290Z,100349.91
2023-05-10T03:55:38.530Z,100347.38
2023-05-10T03:56:41.116Z,100355.16
2023-05-10T03:57:43.447Z,100351.44
2023-05-10T03:58:45.954Z,100344.47
2023-05-10T03:59:48.146Z,100350.94
2023-05-10T04:00:50.451Z,100347.84
2023-05-10T04:01:52.717Z,100347.84
2023-05-10T04:02:55.119Z,100350.22
2023-05-10T04:03:57.526Z,100350.28
2023-05-10T04:04:59.804Z,100346.22
2023-05-10T04:06:03.248Z,100348.81
2023-05-10T04:07:05.733Z,100343.94
2023-05-10T04:08:08.162Z,100344.66
2023-05-10T04:09:10.653Z,100347.03
2023-05-10T04:10:13.707Z,100342.66
2023-05-10T04:11:16.398Z,100348.53
2023-05-10T04:12:18.614Z,100344.88
2023-05-10T04:13:20.912Z,100344.56
2023-05-10T04:14:23.447Z,100340.81
2023-05-10T04:15:25.628Z,100338.50
2023-05-10T04:16:27.991Z,100342.44
2023-05-10T04:17:30.630Z,100341.81
2023-05-10T04:18:32.992Z,100347.78
2023-05-10T04:19:35.366Z,100339.91
2023-05-10T04:20:37.773Z,100339.09
2023-05-10T04:21:39.990Z,100344.06
2023-05-10T04:22:42.428Z,100336.75
2023-05-10T04:23:44.801Z,100349.56
2023-05-10T04:24:46.967Z,100336.94
2023-05-10T04:25:49.469Z,100336.44
2023-05-10T04:26:52.056Z,100333.41
2023-05-10T04:27:54.446Z,100339.56
2023-05-10T04:28:56.633Z,100343.53
2023-05-10T04:29:59.433Z,100340.50
2023-05-10T04:31:06.375Z,100333.69
2023-05-10T04:32:09.055Z,100341.06
2023-05-10T04:33:11.450Z,100334.22
2023-05-10T04:34:13.644Z,100340.44
2023-05-10T04:35:16.030Z,100343.72
2023-05-10T04:36:18.154Z,100341.59
2023-05-10T04:37:22.263Z,100341.38
2023-05-10T04:38:25.225Z,100333.78
2023-05-10T04:39:27.381Z,100336.41
2023-05-10T04:40:30.064Z,100342.34
2023-05-10T04:41:32.382Z,100345.38
2023-05-10T04:42:34.809Z,100339.28
2023-05-10T04:43:37.907Z,100336.25
2023-05-10T04:44:40.112Z,100338.47
2023-05-10T04:45:42.333Z,100340.34
2023-05-10T04:46:44.802Z,100344.47
2023-05-10T04:47:47.132Z,100340.72
2023-05-10T04:48:49.346Z,100341.34
2023-05-10T04:49:51.674Z,100345.03
2023-05-10T04:50:53.963Z,100341.78
2023-05-10T04:51:56.456Z,100339.97
2023-05-10T04:52:59.078Z,100339.00
2023-05-10T04:54:06.547Z,100340.28
2023-05-10T04:55:10.560Z,100342.47
2023-05-10T04:56:12.958Z,100333.31
2023-05-10T04:57:15.181Z,100336.28
2023-05-10T04:58:17.546Z,100340.78
2023-05-10T04:59:19.766Z,100334.56
2023-05-10T05:00:22.085Z,100334.34
2023-05-10T05:01:24.521Z,100334.56
2023-05-10T05:02:26.797Z,100333.81
2023-05-10T05:03:29.232Z,100339.81
2023-05-10T05:04:32.161Z,100345.53
2023-05-10T05:05:34.555Z,100335.09
2023-05-10T05:06:36.818Z,100345.84
2023-05-10T05:07:39.663Z,100341.03
2023-05-10T05:08:41.913Z,100338.44
2023-05-10T05:09:44.101Z,100338.16
2023-05-10T05:10:46.336Z,100344.75
2023-05-10T05:11:48.513Z,100344.13
2023-05-10T05:12:50.909Z,100336.09
2023-05-10T05:13:53.329Z,100344.25
2023-05-10T05:14:55.496Z,100337.38
2023-05-10T05:15:57.968Z,100333.75
2023-05-10T05:17:00.143Z,100335.75
2023-05-10T05:18:02.373Z,100338.75
2023-05-10T05:19:04.820Z,100342.00
2023-05-10T05:20:08.331Z,100335.19
2023-05-10T05:21:20.474Z,100343.16
2023-05-10T05:22:28.493Z,100333.50
2023-05-10T05:23:31.343Z,100342.22
2023-05-10T05:24:39.789Z,100341.03
2023-05-10T05:25:43.005Z,100330.31
2023-05-10T05:26:45.396Z,100331.78
2023-05-10T05:27:47.583Z,100335.06
2023-05-10T05:28:52.917Z,100323.41
2023-05-10T05:29:55.654Z,100333.94
2023-05-10T05:30:57.887Z,100334.31
2023-05-10T05:32:00.459Z,100332.13
2023-05-10T05:33:02.980Z,100329.75
2023-05-10T05:34:05.468Z,100334.31
2023-05-10T05:35:08.192Z,100330.53
2023-05-10T05:36:10.392Z,100331.69
2023-05-10T05:37:17.294Z,100331.59
2023-05-10T05:38:19.727Z,100326.59
2023-05-10T05:39:22.184Z,100328.28
2023-05-10T05:40:24.387Z,100322.47
2023-05-10T05:41:27.039Z,100321.63
2023-05-10T05:42:29.282Z,100324.94
2023-05-10T05:43:35.043Z,100327.06
2023-05-10T05:44:39.544Z,100324.06
2023-05-10T05:45:41.834Z,100318.78
2023-05-10T05:46:44.230Z,100317.97
2023-05-10T05:47:46.458Z,100320.53
2023-05-10T05:48:49.003Z,100320.19
2023-05-10T05:49:51.256Z,100316.22
2023-05-10T05:50:57.564Z,100321.09
2023-05-10T05:52:04.423Z,100313.59
2023-05-10T05:53:06.586Z,100314.69
2023-05-10T05:54:08.996Z,100317.63
2023-05-10T05:55:11.298Z,100304.19
2023-05-10T05:56:13.563Z,100307.31
2023-05-10T05:57:16.000Z,100312.19
2023-05-10T05:58:18.359Z,100311.69
2023-05-10T05:59:20.724Z,100308.53
2023-05-10T06:00:23.779Z,100313.44
2023-05-10T06:01:26.188Z,100315.72
2023-05-10T06:02:28.511Z,100308.34
2023-05-10T06:03:31.076Z,100307.72
2023-05-10T06:04:33.768Z,100312.25
2023-05-10T06:05:35.978Z,100308.97
2023-05-10T06:06:38.165Z,100315.88
2023-05-10T06:07:43.207Z,100314.88
2023-05-10T06:08:45.429Z,100306.19
2023-05-10T06:09:48.084Z,100314.47
2023-05-10T06:10:50.301Z,100311.69
2023-05-10T06:11:52.506Z,100314.09
2023-05-10T06:12:55.100Z,100305.53
2023-05-10T06:13:57.317Z,100306.59
2023-05-10T06:14:59.802Z,100310.94
2023-05-10T06:16:03.765Z,100306.78
2023-05-10T06:17:06.210Z,100308.84
2023-05-10T06:18:08.728Z,100308.38
2023-05-10T06:19:11.101Z,100304.16
2023-05-10T06:20:14.114Z,100300.59
2023-05-10T06:21:17.243Z,100296.41
2023-05-10T06:22:19.648Z,100304.66
2023-05-10T06:23:23.180Z,100298.28
2023-05-10T06:24:25.864Z,100298.28
2023-05-10T06:25:28.141Z,100304.16
2023-05-10T06:26:30.596Z,100307.53
2023-05-10T06:27:32.811Z,100300.50
2023-05-10T06:28:35.047Z,100302.91
2023-05-10T06:29:37.517Z,100302.31
2023-05-10T06:30:40.878Z,100305.19
2023-05-10T06:31:43.107Z,100295.53
2023-05-10T06:32:46.216Z,100298.47
2023-05-10T06:33:49.063Z,100302.69
2023-05-10T06:34:51.441Z,100295.75
2023-05-10T06:35:53.656Z,100302.91
2023-05-10T06:36:56.027Z,100299.50
2023-05-10T06:37:58.201Z,100289.91
2023-05-10T06:39:00.588Z,100296.84
2023-05-10T06:40:03.151Z,100297.94
2023-05-10T06:41:05.470Z,100301.94
2023-05-10T06:42:07.715Z,100288.41
2023-05-10T06:43:10.887Z,100291.44
2023-05-10T06:44:13.969Z,100294.28
2023-05-10T06:45:17.736Z,100309.50
2023-05-10T06:46:20.269Z,100283.72
2023-05-10T06:47:23.103Z,100294.09
2023-05-10T06:48:25.333Z,100292.06
2023-05-10T06:49:27.603Z,100287.81
2023-05-10T06:50:30.073Z,100289.75
2023-05-10T06:51:32.520Z,100291.91
2023-05-10T06:52:35.110Z,100292.84
2023-05-10T06:53:37.492Z,100290.94
2023-05-10T06:54:39.815Z,100280.56
2023-05-10T06:55:42.206Z,100292.47
2023-05-10T06:56:45.692Z,100283.06
2023-05-10T06:57:48.616Z,100287.38
2023-05-10T06:58:50.862Z,100293.91
2023-05-10T06:59:53.732Z,100294.78
2023-05-10T07:00:56.393Z,100297.72
2023-05-10T07:01:58.989Z,100296.81
2023-05-10T07:03:01.446Z,100293.88
2023-05-10T07:04:03.732Z,100293.59
2023-05-10T07:05:06.975Z,100296.59
2023-05-10T07:06:15.649Z,100287.63
2023-05-10T07:07:20.868Z,100285.81
2023-05-10T07:08:23.034Z,100280.97
2023-05-10T07:09:25.463Z,100286.66
2023-05-10T07:10:27.941Z,100294.69
2023-05-10T07:11:30.225Z,100290.78
2023-05-10T07:12:32.526Z,100299.72
2023-05-10T07:13:35.828Z,100289.56
2023-05-10T07:14:38.293Z,100285.44
2023-05-10T07:15:40.875Z,100286.63
2023-05-10T07:16:43.257Z,100282.88
2023-05-10T07:17:46.478Z,100284.47
2023-05-10T07:18:49.102Z,100283.41
2023-05-10T07:19:51.320Z,100280.03
2023-05-10T07:20:53.920Z,100282.28
2023-05-10T07:21:56.321Z,100288.53
2023-05-10T07:22:58.484Z,100291.06
2023-05-10T07:24:01.850Z,100288.06
2023-05-10T07:25:04.806Z,100287.00
2023-05-10T07:26:07.248Z,100290.63
2023-05-10T07:27:10.111Z,100281.16
2023-05-10T07:28:12.595Z,100294.28
2023-05-10T07:29:14.840Z,100290.22
2023-05-10T07:30:17.083Z,100281.88
2023-05-10T07:31:19.754Z,100291.66
2023-05-10T07:32:22.607Z,100282.78
2023-05-10T07:33:24.862Z,100296.00
2023-05-10T07:34:27.079Z,100283.16
2023-05-10T07:35:29.245Z,100280.22
2023-05-10T07:36:32.148Z,100284.47
2023-05-10T07:37:34.403Z,100290.34
2023-05-10T07:38:38.936Z,100286.50
2023-05-10T07:39:42.529Z,100284.22
2023-05-10T07:40:45.146Z,100283.91
2023-05-10T07:41:47.634Z,100294.06
2023-05-10T07:42:49.998Z,100283.81
2023-05-10T07:43:52.451Z,100283.38
2023-05-10T07:44:54.644Z,100283.59
2023-05-10T07:45:58.737Z,100286.25
2023-05-10T07:47:00.985Z,100278.75
2023-05-10T07:48:03.310Z,100288.19
2023-05-10T07:49:05.849Z,100286.19
2023-05-10T07:50:08.829Z,100293.25
2023-05-10T07:51:11.892Z,100285.69
2023-05-10T07:52:14.685Z,100288.88
2023-05-10T07:53:17.100Z,100282.06
2023-05-10T07:54:19.482Z,100280.72
2023-05-10T07:55:22.551Z,100273.38
2023-05-10T07:56:26.107Z,100278.09
2023-05-10T07:57:28.308Z,100264.81
2023-05-10T07:58:31.146Z,100279.88
2023-05-10T07:59:34.058Z,100275.41
2023-05-10T08:00:36.447Z,100270.75
2023-05-10T08:01:38.835Z,100267.81
2023-05-10T08:02:41.962Z,100272.81
2023-05-10T08:03:44.507Z,100266.66
2023-05-10T08:04:50.640Z,100279.25
2023-05-10T08:05:52.853Z,100266.50
2023-05-10T08:06:55.297Z,100277.22
2023-05-10T08:07:57.658Z,100279.06
2023-05-10T08:09:00.133Z,100273.56
2023-05-10T08:10:03.820Z,100276.25
2023-05-10T08:11:06.004Z,100268.88
2023-05-10T08:12:08.536Z,100274.28
2023-05-10T08:13:12.401Z,100278.56
2023-05-10T08:14:14.709Z,100263.75
2023-05-10T08:15:17.229Z,100273.00
2023-05-10T08:16:20.386Z,100271.88
2023-05-10T08:17:23.474Z,100263.66
2023-05-10T08:18:27.201Z,100275.25
2023-05-10T08:19:29.485Z,100272.97
2023-05-10T08:20:31.719Z,100272.69
2023-05-10T08:21:34.215Z,100271.22
2023-05-10T08:22:36.779Z,100270.63
2023-05-10T08:23:40.364Z,100276.13
2023-05-10T08:24:43.040Z,100268.25
2023-05-10T08:25:45.380Z,100274.25
2023-05-10T08:26:48.670Z,100269.81
2023-05-10T08:27:51.716Z,100267.78
2023-05-10T08:28:53.975Z,100271.97
2023-05-10T08:29:56.454Z,100281.44
2023-05-10T08:30:58.842Z,100273.84
2023-05-10T08:32:02.029Z,100263.44
2023-05-10T08:33:09.229Z,100270.63
2023-05-10T08:34:11.507Z,100273.53
2023-05-10T08:35:13.771Z,100274.72
2023-05-10T08:36:20.692Z,100269.06
2023-05-10T08:37:24.906Z,100275.28
2023-05-10T08:38:27.182Z,100276.03
2023-05-10T08:39:30.923Z,100279.69
2023-05-10T08:40:33.240Z,100268.28
2023-05-10T08:41:39.939Z,100267.75
2023-05-10T08:42:51.755Z,100272.41
2023-05-10T08:43:54.993Z,100265.69
2023-05-10T08:44:58.383Z,100271.75
2023-05-10T08:46:03.976Z,100273.66
2023-05-10T08:47:08.070Z,100275.56
2023-05-10T08:48:11.434Z,100271.38
2023-05-10T08:49:19.600Z,100268.38
2023-05-10T08:50:22.993Z,100275.97
2023-05-10T08:51:27.862Z,100275.25
2023-05-10T08:52:31.474Z,100278.59
2023-05-10T08:53:37.523Z,100275.25
2023-05-10T08:54:40.097Z,100273.81
2023-05-10T08:55:43.767Z,100267.06
2023-05-10T08:56:47.372Z,100267.19
2023-05-10T08:57:51.997Z,100278.31
2023-05-10T08:58:54.211Z,100268.81
2023-05-10T08:59:56.394Z,100279.31
2023-05-10T09:00:59.324Z,100268.53
2023-05-10T09:02:02.512Z,100276.72
2023-05-10T09:03:07.169Z,100276.50
2023-05-10T09:04:09.502Z,100273.00
2023-05-10T09:05:11.908Z,100274.41
2023-05-10T09:06:14.761Z,100277.09
2023-05-10T09:07:18.090Z,100276.41
2023-05-10T09:08:21.367Z,100269.22
2023-05-10T09:09:25.336Z,100286.75
2023-05-10T09:10:29.050Z,100274.47
2023-05-10T09:11:32.513Z,100278.78
2023-05-10T09:12:34.739Z,100283.50
2023-05-10T09:13:37.621Z,100288.06
2023-05-10T09:14:40.554Z,100281.41
2023-05-10T09:15:44.323Z,100278.75
2023-05-10T09:16:47.014Z,100277.84
2023-05-10T09:17:50.489Z,100272.06
2023-05-10T09:18:53.396Z,100272.88
2023-05-10T09:20:04.999Z,100275.47
2023-05-10T09:21:07.253Z,100282.50
2023-05-10T09:22:10.935Z,100284.09
2023-05-10T09:23:13.182Z,100283.47
2023-05-10T09:24:15.403Z,100285.50
2023-05-10T09:25:18.331Z,100282.63
2023-05-10T09:26:24.582Z,100285.34
2023-05-10T09:27:29.782Z,100276.09
2023-05-10T09:28:51.034Z,100278.09
2023-05-10T09:29:55.399Z,100281.72
2023-05-10T09:30:57.710Z,100285.59
2023-05-10T09:32:00.202Z,100276.63
2023-05-10T09:33:02.921Z,100280.03
2023-05-10T09:34:05.557Z,100280.31
2023-05-10T09:35:19.330Z,100280.78
2023-05-10T09:36:21.682Z,100274.84
2023-05-10T09:37:30.798Z,100273.50
2023-05-10T09:38:49.810Z,100270.97
2023-05-10T09:39:56.026Z,100266.72
2023-05-10T09:40:58.768Z,100275.22
2023-05-10T09:42:04.825Z,100275.03
2023-05-10T09:43:08.692Z,100284.91
2023-05-10T09:44:11.063Z,100275.69
2023-05-10T09:45:13.270Z,100281.34
2023-05-10T09:46:18.921Z,100273.81
2023-05-10T09:47:21.320Z,100272.81
2023-05-10T09:48:24.863Z,100280.84
2023-05-10T09:49:27.837Z,100269.81
2023-05-10T09:50:31.208Z,100268.50
2023-05-10T09:51:36.167Z,100278.16
2023-05-10T09:53:00.318Z,100280.84
2023-05-10T09:54:16.642Z,100276.63
2023-05-10T09:55:21.553Z,100265.38
2023-05-10T09:56:44.073Z,100280.72
2023-05-10T09:57:48.991Z,100265.91
2023-05-10T09:59:04.022Z,100271.81
2023-05-10T10:00:07.351Z,100271.78
2023-05-10T10:01:15.718Z,100267.34
2023-05-10T10:02:18.132Z,100274.38
2023-05-10T10:03:22.171Z,100271.66
2023-05-10T10:04:25.130Z,100271.84
2023-05-10T10:05:31.872Z,100278.59
2023-05-10T10:06:38.969Z,100272.66
2023-05-10T10:07:41.447Z,100274.56
2023-05-10T10:08:43.875Z,100283.00
2023-05-10T10:09:46.768Z,100276.38
2023-05-10T10:10:50.490Z,100269.97
2023-05-10T10:11:53.530Z,100261.91
2023-05-10T10:12:56.409Z,100276.53
2023-05-10T10:13:59.204Z,100261.47
2023-05-10T10:15:02.463Z,100273.81
2023-05-10T10:16:05.136Z,100270.13
2023-05-10T10:17:09.150Z,100267.81
2023-05-10T10:18:18.442Z,100267.22
2023-05-10T10:19:21.633Z,100256.09
2023-05-10T10:20:25.010Z,100255.69
2023-05-10T10:21:27.927Z,100255.56
2023-05-10T10:22:30.426Z,100263.47
2023-05-10T10:23:32.812Z,100258.81
2023-05-10T10:24:35.176Z,100250.59
2023-05-10T10:25:39.000Z,100251.44
2023-05-10T10:26:43.811Z,100255.13
2023-05-10T10:27:52.021Z,100260.31
2023-05-10T10:29:41.594Z,100258.53
2023-05-10T10:30:48.194Z,100254.88
2023-05-10T10:32:02.871Z,100247.84
2023-05-10T10:33:32.043Z,100251.84
2023-05-10T10:34:34.976Z,100257.06
2023-05-10T10:35:37.681Z,100257.16
2023-05-10T10:36:47.547Z,100259.91
2023-05-10T10:37:51.845Z,100263.47
2023-05-10T10:39:01.571Z,100262.50
2023-05-10T10:40:33.592Z,100269.22
2023-05-10T10:41:41.841Z,100258.97
2023-05-10T10:42:50.945Z,100263.88
2023-05-10T10:44:30.336Z,100264.81
2023-05-10T10:45:32.808Z,100259.94
2023-05-10T10:46:35.472Z,100254.19
2023-05-10T10:47:38.650Z,100264.19
2023-05-10T10:48:42.735Z,100269.41
2023-05-10T10:50:08.996Z,100263.81
2023-05-10T10:51:12.914Z,100274.53
2023-05-10T10:52:34.616Z,100262.53
2023-05-10T10:53:38.188Z,100265.19
2023-05-10T10:54:48.038Z,100266.81
2023-05-10T10:55:50.223Z,100261.41
2023-05-10T10:57:12.769Z,100255.28
2023-05-10T10:58:35.263Z,100261.94
2023-05-10T10:59:42.013Z,100258.28
2023-05-10T11:00:46.358Z,100255.16
2023-05-10T11:01:53.125Z,100250.19
2023-05-10T11:03:03.743Z,100265.16
2023-05-10T11:04:05.949Z,100257.06
2023-05-10T11:05:34.107Z,100255.44
2023-05-10T11:06:37.193Z,100264.09
2023-05-10T11:07:59.480Z,100257.44
2023-05-10T11:09:09.628Z,100268.06
2023-05-10T11:10:12.383Z,100256.59
2023-05-10T11:11:16.207Z,100249.25
2023-05-10T11:12:18.440Z,100248.00
2023-05-10T11:13:31.019Z,100253.56
2023-05-10T11:14:33.292Z,100252.25
2023-05-10T11:15:38.533Z,100258.63
2023-05-10T11:16:45.126Z,100257.97
2023-05-10T11:17:53.012Z,100260.47
2023-05-10T11:18:55.330Z,100261.81
2023-05-10T11:20:25.889Z,100253.00
2023-05-10T11:21:28.235Z,100252.41
2023-05-10T11:22:51.961Z,100247.97
2023-05-10T11:23:59.250Z,100251.56
2023-05-10T11:25:02.306Z,100263.69
2023-05-10T11:26:05.886Z,100247.34
2023-05-10T11:27:08.193Z,100254.09
2023-05-10T11:28:11.288Z,100256.13
2023-05-10T11:29:14.701Z,100260.09
2023-05-10T11:30:18.404Z,100256.63
2023-05-10T11:31:21.936Z,100253.47
2023-05-10T11:32:24.494Z,100256.69
2023-05-10T11:33:27.051Z,100251.66
2023-05-10T11:34:35.843Z,100265.34
2023-05-10T11:35:43.041Z,100261.09
2023-05-10T11:36:52.695Z,100258.25
2023-05-10T11:37:55.062Z,100260.84
2023-05-10T11:38:57.979Z,100257.25
2023-05-10T11:40:00.188Z,100249.63
2023-05-10T11:41:02.406Z,100260.44
2023-05-10T11:42:04.817Z,100252.66
2023-05-10T11:43:07.441Z,100255.88
2023-05-10T11:44:10.491Z,100261.94
2023-05-10T11:45:12.735Z,100253.03
2023-05-10T11:46:14.935Z,100248.56
2023-05-10T11:47:17.275Z,100249.72
2023-05-10T11:48:23.261Z,100257.19
2023-05-10T11:49:26.985Z,100254.59
2023-05-10T11:50:29.785Z,100256.91
2023-05-10T11:51:36.138Z,100249.59
2023-05-10T11:52:38.764Z,100248.72
2023-05-10T11:53:40.929Z,100253.75
2023-05-10T11:54:55.913Z,100251.16
2023-05-10T11:56:07.430Z,100259.06
2023-05-10T11:57:09.742Z,100257.19
2023-05-10T11:58:12.158Z,100260.19
2023-05-10T11:59:15.872Z,100260.91
2023-05-10T12:00:18.497Z,100262.38
2023-05-10T12:01:22.454Z,100260.84
2023-05-10T12:02:25.263Z,100264.47
2023-05-10T12:03:29.234Z,100263.47
2023-05-10T12:04:32.214Z,100261.88
2023-05-10T12:05:35.255Z,100256.44
2023-05-10T12:06:41.514Z,100253.59
2023-05-10T12:07:43.851Z,100251.28
2023-05-10T12:08:47.751Z,100251.00
2023-05-10T12:10:05.024Z,100259.91
2023-05-10T12:11:09.479Z,100259.03
2023-05-10T12:12:17.278Z,100247.53
2023-05-10T12:13:21.546Z,100262.00
2023-05-10T12:14:23.924Z,100248.31
2023-05-10T12:15:26.550Z,100259.81
2023-05-10T12:16:30.534Z,100256.22
2023-05-10T12:17:33.039Z,100260.44
2023-05-10T12:18:35.325Z,100257.22
2023-05-10T12:19:40.557Z,100268.19
2023-05-10T12:20:42.970Z,100258.69
2023-05-10T12:21:45.519Z,100268.09